sensor_id;sensor_type;location;lat;lon;timestamp;P1;durP1;ratioP1;P2;durP2;ratioP2
2992;SDS011;1506;48.932;9.478;2022-10-15T00:01:21;0.67;;;0.67;;
2992;SDS011;1506;48.932;9.478;2022-10-15T00:03:48;0.47;;;0.43;;
2992;SDS011;1506;48.932;9.478;2022-10-15T00:06:16;1.70;;;0.70;;
2992;SDS011;1506;48.932;9.478;2022-10-15T00:08:46;0.63;;;0.63;;
2992;SDS011;1506;48.932;9.478;2022-10-15T00:11:14;0.57;;;0.57;;
2992;SDS011;1506;48.932;9.478;2022-10-15T00:13:48;0.80;;;0.80;;
2992;SDS011;1506;48.932;9.478;2022-10-15T00:16:19;1.47;;;0.70;;
2992;SDS011;1506;48.932;9.478;2022-10-15T00:18:48;0.63;;;0.63;;
2992;SDS011;1506;48.932;9.478;2022-10-15T00:21:17;0.63;;;0.63;;
2992;SDS011;1506;48.932;9.478;2022-10-15T00:23:46;6.50;;;1.27;;
2992;SDS011;1506;48.932;9.478;2022-10-15T00:26:24;2.50;;;0.60;;
2992;SDS011;1506;48.932;9.478;2022-10-15T00:28:54;0.63;;;0.63;;
2992;SDS011;1506;48.932;9.478;2022-10-15T00:31:25;0.60;;;0.60;;
2992;SDS011;1506;48.932;9.478;2022-10-15T00:33:55;0.60;;;0.60;;
2992;SDS011;1506;48.932;9.478;2022-10-15T00:36:25;0.70;;;0.67;;
2992;SDS011;1506;48.932;9.478;2022-10-15T00:38:59;0.83;;;0.63;;
2992;SDS011;1506;48.932;9.478;2022-10-15T00:41:28;0.60;;;0.60;;
2992;SDS011;1506;48.932;9.478;2022-10-15T00:44:45;0.53;;;0.53;;
2992;SDS011;1506;48.932;9.478;2022-10-15T00:46:53;0.70;;;0.70;;
2992;SDS011;1506;48.932;9.478;2022-10-15T00:55:28;0.50;;;0.50;;
2992;SDS011;1506;48.932;9.478;2022-10-15T00:58:02;0.50;;;0.40;;
2992;SDS011;1506;48.932;9.478;2022-10-15T01:00:34;0.50;;;0.50;;
2992;SDS011;1506;48.932;9.478;2022-10-15T01:03:01;0.60;;;0.60;;
2992;SDS011;1506;48.932;9.478;2022-10-15T01:05:28;0.60;;;0.60;;
2992;SDS011;1506;48.932;9.478;2022-10-15T01:07:56;0.50;;;0.50;;
2992;SDS011;1506;48.932;9.478;2022-10-15T01:10:24;0.60;;;0.60;;
2992;SDS011;1506;48.932;9.478;2022-10-15T01:13:18;0.50;;;0.50;;
2992;SDS011;1506;48.932;9.478;2022-10-15T01:18:45;2.00;;;0.50;;
2992;SDS011;1506;48.932;9.478;2022-10-15T01:38:50;0.80;;;0.60;;
2992;SDS011;1506;48.932;9.478;2022-10-15T01:44:32;0.60;;;0.60;;
2992;SDS011;1506;48.932;9.478;2022-10-15T01:47:13;0.80;;;0.50;;
2992;SDS011;1506;48.932;9.478;2022-10-15T01:49:48;0.40;;;0.40;;
2992;SDS011;1506;48.932;9.478;2022-10-15T01:52:20;2.77;;;0.50;;
2992;SDS011;1506;48.932;9.478;2022-10-15T01:54:52;0.53;;;0.53;;
2992;SDS011;1506;48.932;9.478;2022-10-15T01:57:20;0.50;;;0.50;;
2992;SDS011;1506;48.932;9.478;2022-10-15T01:59:52;0.60;;;0.50;;
2992;SDS011;1506;48.932;9.478;2022-10-15T02:02:21;0.43;;;0.40;;
2992;SDS011;1506;48.932;9.478;2022-10-15T02:04:49;0.60;;;0.50;;
2992;SDS011;1506;48.932;9.478;2022-10-15T02:07:44;0.60;;;0.60;;
2992;SDS011;1506;48.932;9.478;2022-10-15T02:13:23;0.70;;;0.70;;
2992;SDS011;1506;48.932;9.478;2022-10-15T02:16:16;2.20;;;0.60;;
2992;SDS011;1506;48.932;9.478;2022-10-15T02:21:44;0.60;;;0.60;;
2992;SDS011;1506;48.932;9.478;2022-10-15T02:24:20;0.60;;;0.60;;
2992;SDS011;1506;48.932;9.478;2022-10-15T02:26:51;0.50;;;0.50;;
2992;SDS011;1506;48.932;9.478;2022-10-15T02:29:22;0.70;;;0.57;;
2992;SDS011;1506;48.932;9.478;2022-10-15T02:31:54;0.50;;;0.50;;
2992;SDS011;1506;48.932;9.478;2022-10-15T02:34:25;0.50;;;0.50;;
2992;SDS011;1506;48.932;9.478;2022-10-15T02:36:56;0.60;;;0.50;;
2992;SDS011;1506;48.932;9.478;2022-10-15T02:39:27;0.60;;;0.50;;
2992;SDS011;1506;48.932;9.478;2022-10-15T02:41:57;0.50;;;0.50;;
2992;SDS011;1506;48.932;9.478;2022-10-15T02:44:25;0.50;;;0.50;;
2992;SDS011;1506;48.932;9.478;2022-10-15T02:46:53;0.60;;;0.50;;
2992;SDS011;1506;48.932;9.478;2022-10-15T02:49:23;0.50;;;0.50;;
2992;SDS011;1506;48.932;9.478;2022-10-15T02:51:50;0.50;;;0.50;;
2992;SDS011;1506;48.932;9.478;2022-10-15T02:54:17;0.50;;;0.50;;
2992;SDS011;1506;48.932;9.478;2022-10-15T02:56:45;0.57;;;0.57;;
2992;SDS011;1506;48.932;9.478;2022-10-15T02:59:14;0.50;;;0.47;;
2992;SDS011;1506;48.932;9.478;2022-10-15T03:01:41;0.40;;;0.40;;
2992;SDS011;1506;48.932;9.478;2022-10-15T03:04:08;0.50;;;0.50;;
2992;SDS011;1506;48.932;9.478;2022-10-15T03:06:36;0.50;;;0.50;;
2992;SDS011;1506;48.932;9.478;2022-10-15T03:09:03;0.60;;;0.60;;
2992;SDS011;1506;48.932;9.478;2022-10-15T03:11:31;0.50;;;0.50;;
2992;SDS011;1506;48.932;9.478;2022-10-15T03:14:00;0.60;;;0.50;;
2992;SDS011;1506;48.932;9.478;2022-10-15T03:16:29;0.40;;;0.40;;
2992;SDS011;1506;48.932;9.478;2022-10-15T03:18:56;0.50;;;0.50;;
2992;SDS011;1506;48.932;9.478;2022-10-15T03:21:23;0.50;;;0.50;;
2992;SDS011;1506;48.932;9.478;2022-10-15T03:23:56;0.53;;;0.50;;
2992;SDS011;1506;48.932;9.478;2022-10-15T03:26:25;0.50;;;0.50;;
2992;SDS011;1506;48.932;9.478;2022-10-15T03:28:52;0.50;;;0.50;;
2992;SDS011;1506;48.932;9.478;2022-10-15T03:31:37;0.53;;;0.50;;
2992;SDS011;1506;48.932;9.478;2022-10-15T03:34:04;0.60;;;0.50;;
2992;SDS011;1506;48.932;9.478;2022-10-15T03:36:31;0.70;;;0.70;;
2992;SDS011;1506;48.932;9.478;2022-10-15T03:38:59;3.27;;;0.70;;
2992;SDS011;1506;48.932;9.478;2022-10-15T03:41:26;0.50;;;0.50;;
2992;SDS011;1506;48.932;9.478;2022-10-15T03:43:53;0.70;;;0.47;;
2992;SDS011;1506;48.932;9.478;2022-10-15T03:46:22;0.80;;;0.50;;
2992;SDS011;1506;48.932;9.478;2022-10-15T03:48:49;0.50;;;0.50;;
2992;SDS011;1506;48.932;9.478;2022-10-15T03:51:18;0.50;;;0.50;;
2992;SDS011;1506;48.932;9.478;2022-10-15T03:53:55;2.53;;;0.57;;
2992;SDS011;1506;48.932;9.478;2022-10-15T03:56:22;0.50;;;0.43;;
2992;SDS011;1506;48.932;9.478;2022-10-15T03:58:49;0.50;;;0.50;;
2992;SDS011;1506;48.932;9.478;2022-10-15T04:01:18;0.50;;;0.50;;
2992;SDS011;1506;48.932;9.478;2022-10-15T04:03:46;0.57;;;0.57;;
2992;SDS011;1506;48.932;9.478;2022-10-15T04:06:22;0.50;;;0.50;;
2992;SDS011;1506;48.932;9.478;2022-10-15T04:08:49;2.57;;;0.87;;
2992;SDS011;1506;48.932;9.478;2022-10-15T04:11:21;0.50;;;0.47;;
2992;SDS011;1506;48.932;9.478;2022-10-15T04:13:58;0.50;;;0.50;;
2992;SDS011;1506;48.932;9.478;2022-10-15T04:16:25;6.63;;;0.60;;
2992;SDS011;1506;48.932;9.478;2022-10-15T04:18:53;0.80;;;0.80;;
2992;SDS011;1506;48.932;9.478;2022-10-15T04:21:20;0.70;;;0.70;;
2992;SDS011;1506;48.932;9.478;2022-10-15T04:23:53;0.60;;;0.40;;
2992;SDS011;1506;48.932;9.478;2022-10-15T04:26:26;0.40;;;0.40;;
2992;SDS011;1506;48.932;9.478;2022-10-15T04:28:55;0.50;;;0.50;;
2992;SDS011;1506;48.932;9.478;2022-10-15T04:31:22;3.60;;;0.77;;
2992;SDS011;1506;48.932;9.478;2022-10-15T04:33:50;0.50;;;0.50;;
2992;SDS011;1506;48.932;9.478;2022-10-15T04:36:17;0.53;;;0.50;;
2992;SDS011;1506;48.932;9.478;2022-10-15T04:38:51;0.50;;;0.50;;
2992;SDS011;1506;48.932;9.478;2022-10-15T04:41:25;0.93;;;0.93;;
2992;SDS011;1506;48.932;9.478;2022-10-15T04:43:58;7.50;;;0.70;;
2992;SDS011;1506;48.932;9.478;2022-10-15T04:46:25;0.50;;;0.50;;
2992;SDS011;1506;48.932;9.478;2022-10-15T04:48:53;0.40;;;0.40;;
2992;SDS011;1506;48.932;9.478;2022-10-15T04:51:23;0.60;;;0.50;;
2992;SDS011;1506;48.932;9.478;2022-10-15T04:54:10;0.57;;;0.57;;
2992;SDS011;1506;48.932;9.478;2022-10-15T04:56:52;1.37;;;0.53;;
2992;SDS011;1506;48.932;9.478;2022-10-15T04:59:19;0.67;;;0.50;;
2992;SDS011;1506;48.932;9.478;2022-10-15T05:02:05;0.60;;;0.50;;
2992;SDS011;1506;48.932;9.478;2022-10-15T05:04:33;0.43;;;0.43;;
2992;SDS011;1506;48.932;9.478;2022-10-15T05:06:59;0.43;;;0.43;;
2992;SDS011;1506;48.932;9.478;2022-10-15T05:09:26;0.43;;;0.43;;
2992;SDS011;1506;48.932;9.478;2022-10-15T05:11:56;0.57;;;0.57;;
2992;SDS011;1506;48.932;9.478;2022-10-15T05:14:25;1.47;;;0.60;;
2992;SDS011;1506;48.932;9.478;2022-10-15T05:17:12;0.60;;;0.60;;
2992;SDS011;1506;48.932;9.478;2022-10-15T05:19:41;0.50;;;0.47;;
2992;SDS011;1506;48.932;9.478;2022-10-15T05:22:15;0.50;;;0.50;;
2992;SDS011;1506;48.932;9.478;2022-10-15T05:24:49;4.00;;;0.50;;
2992;SDS011;1506;48.932;9.478;2022-10-15T05:27:30;0.50;;;0.50;;
2992;SDS011;1506;48.932;9.478;2022-10-15T05:29:58;0.93;;;0.50;;
2992;SDS011;1506;48.932;9.478;2022-10-15T05:32:34;1.90;;;0.50;;
2992;SDS011;1506;48.932;9.478;2022-10-15T05:35:02;0.50;;;0.50;;
2992;SDS011;1506;48.932;9.478;2022-10-15T05:37:45;0.70;;;0.70;;
2992;SDS011;1506;48.932;9.478;2022-10-15T05:40:14;0.50;;;0.50;;
2992;SDS011;1506;48.932;9.478;2022-10-15T05:42:59;0.93;;;0.50;;
2992;SDS011;1506;48.932;9.478;2022-10-15T05:45:26;0.50;;;0.50;;
2992;SDS011;1506;48.932;9.478;2022-10-15T05:47:56;0.50;;;0.50;;
2992;SDS011;1506;48.932;9.478;2022-10-15T05:50:23;2.70;;;0.60;;
2992;SDS011;1506;48.932;9.478;2022-10-15T05:52:54;0.60;;;0.60;;
2992;SDS011;1506;48.932;9.478;2022-10-15T05:55:32;1.30;;;1.20;;
2992;SDS011;1506;48.932;9.478;2022-10-15T05:58:00;1.27;;;1.17;;
2992;SDS011;1506;48.932;9.478;2022-10-15T06:00:29;0.70;;;0.70;;
2992;SDS011;1506;48.932;9.478;2022-10-15T06:02:57;0.80;;;0.80;;
2992;SDS011;1506;48.932;9.478;2022-10-15T06:05:24;6.60;;;2.80;;
2992;SDS011;1506;48.932;9.478;2022-10-15T06:07:51;4.30;;;1.40;;
2992;SDS011;1506;48.932;9.478;2022-10-15T06:10:19;0.93;;;0.90;;
2992;SDS011;1506;48.932;9.478;2022-10-15T06:12:49;2.40;;;1.20;;
2992;SDS011;1506;48.932;9.478;2022-10-15T06:15:17;10.40;;;3.73;;
2992;SDS011;1506;48.932;9.478;2022-10-15T06:17:45;14.10;;;3.37;;
2992;SDS011;1506;48.932;9.478;2022-10-15T06:20:12;6.30;;;3.13;;
2992;SDS011;1506;48.932;9.478;2022-10-15T06:22:39;4.77;;;4.30;;
2992;SDS011;1506;48.932;9.478;2022-10-15T06:25:07;2.23;;;2.03;;
2992;SDS011;1506;48.932;9.478;2022-10-15T06:27:34;1.70;;;1.60;;
2992;SDS011;1506;48.932;9.478;2022-10-15T06:30:02;2.13;;;1.27;;
2992;SDS011;1506;48.932;9.478;2022-10-15T06:32:30;1.13;;;1.03;;
2992;SDS011;1506;48.932;9.478;2022-10-15T06:34:57;1.30;;;1.30;;
2992;SDS011;1506;48.932;9.478;2022-10-15T06:37:25;1.07;;;1.07;;
2992;SDS011;1506;48.932;9.478;2022-10-15T06:39:57;1.00;;;0.90;;
2992;SDS011;1506;48.932;9.478;2022-10-15T06:42:24;0.70;;;0.67;;
2992;SDS011;1506;48.932;9.478;2022-10-15T06:44:53;6.20;;;1.20;;
2992;SDS011;1506;48.932;9.478;2022-10-15T06:47:21;3.10;;;1.00;;
2992;SDS011;1506;48.932;9.478;2022-10-15T06:49:48;1.30;;;1.20;;
2992;SDS011;1506;48.932;9.478;2022-10-15T06:52:16;0.80;;;0.80;;
2992;SDS011;1506;48.932;9.478;2022-10-15T06:54:43;0.60;;;0.60;;
2992;SDS011;1506;48.932;9.478;2022-10-15T06:57:12;12.40;;;0.80;;
2992;SDS011;1506;48.932;9.478;2022-10-15T06:59:39;1.73;;;1.27;;
2992;SDS011;1506;48.932;9.478;2022-10-15T07:02:10;0.77;;;0.77;;
2992;SDS011;1506;48.932;9.478;2022-10-15T07:04:39;1.20;;;1.10;;
2992;SDS011;1506;48.932;9.478;2022-10-15T07:07:06;2.97;;;1.53;;
2992;SDS011;1506;48.932;9.478;2022-10-15T07:09:34;1.27;;;1.20;;
2992;SDS011;1506;48.932;9.478;2022-10-15T07:12:02;1.27;;;0.97;;
2992;SDS011;1506;48.932;9.478;2022-10-15T07:14:29;6.33;;;2.37;;
2992;SDS011;1506;48.932;9.478;2022-10-15T07:16:58;10.27;;;8.47;;
2992;SDS011;1506;48.932;9.478;2022-10-15T07:19:27;22.90;;;12.30;;
2992;SDS011;1506;48.932;9.478;2022-10-15T07:21:54;3.40;;;3.20;;
2992;SDS011;1506;48.932;9.478;2022-10-15T07:24:22;2.00;;;1.90;;
2992;SDS011;1506;48.932;9.478;2022-10-15T07:26:49;1.23;;;1.13;;
2992;SDS011;1506;48.932;9.478;2022-10-15T07:29:16;1.67;;;0.87;;
2992;SDS011;1506;48.932;9.478;2022-10-15T07:31:44;0.90;;;0.90;;
2992;SDS011;1506;48.932;9.478;2022-10-15T07:34:14;2.03;;;0.80;;
2992;SDS011;1506;48.932;9.478;2022-10-15T07:36:42;1.73;;;1.63;;
2992;SDS011;1506;48.932;9.478;2022-10-15T07:39:09;2.07;;;1.97;;
2992;SDS011;1506;48.932;9.478;2022-10-15T07:41:37;1.70;;;1.60;;
2992;SDS011;1506;48.932;9.478;2022-10-15T07:44:04;0.70;;;0.70;;
2992;SDS011;1506;48.932;9.478;2022-10-15T07:46:31;0.93;;;0.93;;
2992;SDS011;1506;48.932;9.478;2022-10-15T07:48:59;1.63;;;1.53;;
2992;SDS011;1506;48.932;9.478;2022-10-15T07:51:26;5.30;;;1.40;;
2992;SDS011;1506;48.932;9.478;2022-10-15T07:53:54;1.13;;;1.10;;
2992;SDS011;1506;48.932;9.478;2022-10-15T07:56:21;1.73;;;1.40;;
2992;SDS011;1506;48.932;9.478;2022-10-15T07:58:48;1.10;;;1.10;;
2992;SDS011;1506;48.932;9.478;2022-10-15T08:01:19;0.90;;;0.90;;
2992;SDS011;1506;48.932;9.478;2022-10-15T08:03:47;1.27;;;1.27;;
2992;SDS011;1506;48.932;9.478;2022-10-15T08:06:14;0.90;;;0.90;;
2992;SDS011;1506;48.932;9.478;2022-10-15T08:08:42;1.03;;;0.90;;
2992;SDS011;1506;48.932;9.478;2022-10-15T08:11:11;0.70;;;0.70;;
2992;SDS011;1506;48.932;9.478;2022-10-15T08:13:39;3.30;;;1.00;;
2992;SDS011;1506;48.932;9.478;2022-10-15T08:16:08;0.90;;;0.90;;
2992;SDS011;1506;48.932;9.478;2022-10-15T08:18:36;2.23;;;1.00;;
2992;SDS011;1506;48.932;9.478;2022-10-15T08:21:04;0.80;;;0.80;;
2992;SDS011;1506;48.932;9.478;2022-10-15T08:23:33;1.20;;;0.87;;
2992;SDS011;1506;48.932;9.478;2022-10-15T08:26:01;3.43;;;1.67;;
2992;SDS011;1506;48.932;9.478;2022-10-15T08:28:28;0.90;;;0.90;;
2992;SDS011;1506;48.932;9.478;2022-10-15T08:30:57;0.80;;;0.80;;
2992;SDS011;1506;48.932;9.478;2022-10-15T08:33:31;1.07;;;0.77;;
2992;SDS011;1506;48.932;9.478;2022-10-15T08:35:59;3.50;;;1.40;;
2992;SDS011;1506;48.932;9.478;2022-10-15T08:38:28;0.90;;;0.90;;
2992;SDS011;1506;48.932;9.478;2022-10-15T08:40:57;0.90;;;0.70;;
2992;SDS011;1506;48.932;9.478;2022-10-15T08:43:36;0.90;;;0.90;;
2992;SDS011;1506;48.932;9.478;2022-10-15T08:46:14;1.40;;;0.90;;
2992;SDS011;1506;48.932;9.478;2022-10-15T08:49:02;1.43;;;1.33;;
2992;SDS011;1506;48.932;9.478;2022-10-15T08:51:36;1.93;;;1.00;;
2992;SDS011;1506;48.932;9.478;2022-10-15T08:54:09;1.33;;;1.23;;
2992;SDS011;1506;48.932;9.478;2022-10-15T08:56:44;1.13;;;0.80;;
2992;SDS011;1506;48.932;9.478;2022-10-15T08:59:28;2.00;;;1.87;;
2992;SDS011;1506;48.932;9.478;2022-10-15T09:02:04;1.10;;;1.00;;
2992;SDS011;1506;48.932;9.478;2022-10-15T09:04:59;2.30;;;1.07;;
2992;SDS011;1506;48.932;9.478;2022-10-15T09:10:51;2.33;;;2.10;;
2992;SDS011;1506;48.932;9.478;2022-10-15T09:13:32;1.93;;;1.73;;
2992;SDS011;1506;48.932;9.478;2022-10-15T09:16:15;2.13;;;1.93;;
2992;SDS011;1506;48.932;9.478;2022-10-15T09:18:49;1.87;;;1.77;;
2992;SDS011;1506;48.932;9.478;2022-10-15T09:21:18;3.50;;;3.17;;
2992;SDS011;1506;48.932;9.478;2022-10-15T09:23:47;2.90;;;1.27;;
2992;SDS011;1506;48.932;9.478;2022-10-15T09:26:27;2.30;;;1.70;;
2992;SDS011;1506;48.932;9.478;2022-10-15T09:32:38;1.60;;;1.50;;
2992;SDS011;1506;48.932;9.478;2022-10-15T09:38:39;2.90;;;2.70;;
2992;SDS011;1506;48.932;9.478;2022-10-15T09:40:59;2.30;;;2.20;;
2992;SDS011;1506;48.932;9.478;2022-10-15T09:43:49;1.30;;;1.20;;
2992;SDS011;1506;48.932;9.478;2022-10-15T09:46:18;0.70;;;0.70;;
2992;SDS011;1506;48.932;9.478;2022-10-15T09:54:34;1.97;;;0.87;;
2992;SDS011;1506;48.932;9.478;2022-10-15T09:57:09;1.03;;;1.03;;
2992;SDS011;1506;48.932;9.478;2022-10-15T09:59:40;1.00;;;1.00;;
2992;SDS011;1506;48.932;9.478;2022-10-15T10:02:24;0.90;;;0.90;;
2992;SDS011;1506;48.932;9.478;2022-10-15T10:04:53;3.83;;;1.17;;
2992;SDS011;1506;48.932;9.478;2022-10-15T10:07:27;2.00;;;1.30;;
2992;SDS011;1506;48.932;9.478;2022-10-15T10:09:57;2.50;;;1.30;;
2992;SDS011;1506;48.932;9.478;2022-10-15T10:12:32;1.13;;;1.03;;
2992;SDS011;1506;48.932;9.478;2022-10-15T10:17:34;1.10;;;0.90;;
2992;SDS011;1506;48.932;9.478;2022-10-15T10:22:48;1.20;;;1.10;;
2992;SDS011;1506;48.932;9.478;2022-10-15T10:33:14;0.97;;;0.87;;
2992;SDS011;1506;48.932;9.478;2022-10-15T10:35:51;0.60;;;0.60;;
2992;SDS011;1506;48.932;9.478;2022-10-15T10:38:22;0.80;;;0.80;;
2992;SDS011;1506;48.932;9.478;2022-10-15T10:40:54;0.97;;;0.97;;
2992;SDS011;1506;48.932;9.478;2022-10-15T10:43:26;2.03;;;0.90;;
2992;SDS011;1506;48.932;9.478;2022-10-15T10:48:52;1.00;;;1.00;;
2992;SDS011;1506;48.932;9.478;2022-10-15T10:51:23;0.80;;;0.80;;
2992;SDS011;1506;48.932;9.478;2022-10-15T10:54:05;1.17;;;1.10;;
2992;SDS011;1506;48.932;9.478;2022-10-15T10:59:09;1.00;;;0.90;;
2992;SDS011;1506;48.932;9.478;2022-10-15T11:01:49;0.93;;;0.90;;
2992;SDS011;1506;48.932;9.478;2022-10-15T11:04:30;0.73;;;0.73;;
2992;SDS011;1506;48.932;9.478;2022-10-15T11:07:02;1.00;;;1.00;;
2992;SDS011;1506;48.932;9.478;2022-10-15T11:36:19;2.13;;;1.10;;
2992;SDS011;1506;48.932;9.478;2022-10-15T11:44:48;4.53;;;1.67;;
2992;SDS011;1506;48.932;9.478;2022-10-15T11:47:41;2.60;;;1.00;;
2992;SDS011;1506;48.932;9.478;2022-10-15T11:53:00;0.90;;;0.90;;
2992;SDS011;1506;48.932;9.478;2022-10-15T11:56:12;0.83;;;0.80;;
2992;SDS011;1506;48.932;9.478;2022-10-15T11:58:48;1.40;;;1.30;;
2992;SDS011;1506;48.932;9.478;2022-10-15T12:01:42;5.33;;;0.83;;
2992;SDS011;1506;48.932;9.478;2022-10-15T12:04:41;1.10;;;0.80;;
2992;SDS011;1506;48.932;9.478;2022-10-15T12:07:20;0.70;;;0.70;;
2992;SDS011;1506;48.932;9.478;2022-10-15T12:13:02;10.30;;;0.83;;
2992;SDS011;1506;48.932;9.478;2022-10-15T12:21:39;0.93;;;0.80;;
2992;SDS011;1506;48.932;9.478;2022-10-15T12:27:40;0.80;;;0.70;;
2992;SDS011;1506;48.932;9.478;2022-10-15T12:32:29;1.37;;;1.27;;
2992;SDS011;1506;48.932;9.478;2022-10-15T12:37:42;2.00;;;1.00;;
2992;SDS011;1506;48.932;9.478;2022-10-15T12:42:48;1.60;;;1.10;;
2992;SDS011;1506;48.932;9.478;2022-10-15T12:45:33;1.03;;;0.97;;
2992;SDS011;1506;48.932;9.478;2022-10-15T12:48:17;1.10;;;1.00;;
2992;SDS011;1506;48.932;9.478;2022-10-15T12:50:47;1.63;;;0.90;;
2992;SDS011;1506;48.932;9.478;2022-10-15T12:56:21;2.20;;;0.60;;
2992;SDS011;1506;48.932;9.478;2022-10-15T12:58:52;0.77;;;0.77;;
2992;SDS011;1506;48.932;9.478;2022-10-15T13:17:00;1.10;;;0.90;;
2992;SDS011;1506;48.932;9.478;2022-10-15T13:22:34;4.30;;;1.17;;
2992;SDS011;1506;48.932;9.478;2022-10-15T13:25:02;2.10;;;0.90;;
2992;SDS011;1506;48.932;9.478;2022-10-15T13:27:40;2.03;;;1.10;;
2992;SDS011;1506;48.932;9.478;2022-10-15T13:32:48;3.50;;;0.90;;
2992;SDS011;1506;48.932;9.478;2022-10-15T13:35:25;3.00;;;0.97;;
2992;SDS011;1506;48.932;9.478;2022-10-15T13:37:55;1.13;;;0.73;;
2992;SDS011;1506;48.932;9.478;2022-10-15T13:40:24;1.47;;;1.10;;
2992;SDS011;1506;48.932;9.478;2022-10-15T13:42:57;1.43;;;0.87;;
2992;SDS011;1506;48.932;9.478;2022-10-15T13:45:27;0.73;;;0.73;;
2992;SDS011;1506;48.932;9.478;2022-10-15T13:47:55;0.80;;;0.63;;
2992;SDS011;1506;48.932;9.478;2022-10-15T13:52:59;0.70;;;0.70;;
2992;SDS011;1506;48.932;9.478;2022-10-15T13:55:53;0.60;;;0.60;;
2992;SDS011;1506;48.932;9.478;2022-10-15T13:58:24;0.63;;;0.50;;
2992;SDS011;1506;48.932;9.478;2022-10-15T14:03:47;1.27;;;0.90;;
2992;SDS011;1506;48.932;9.478;2022-10-15T14:06:18;1.63;;;0.90;;
2992;SDS011;1506;48.932;9.478;2022-10-15T14:08:49;1.77;;;1.67;;
2992;SDS011;1506;48.932;9.478;2022-10-15T14:11:49;1.30;;;1.20;;
2992;SDS011;1506;48.932;9.478;2022-10-15T14:14:29;4.87;;;1.67;;
2992;SDS011;1506;48.932;9.478;2022-10-15T14:17:07;0.80;;;0.80;;
2992;SDS011;1506;48.932;9.478;2022-10-15T14:19:45;3.40;;;1.70;;
2992;SDS011;1506;48.932;9.478;2022-10-15T14:22:37;7.43;;;5.57;;
2992;SDS011;1506;48.932;9.478;2022-10-15T14:25:07;2.50;;;2.40;;
2992;SDS011;1506;48.932;9.478;2022-10-15T14:27:43;2.60;;;1.67;;
2992;SDS011;1506;48.932;9.478;2022-10-15T14:30:18;1.73;;;1.63;;
2992;SDS011;1506;48.932;9.478;2022-10-15T14:32:57;1.37;;;1.27;;
2992;SDS011;1506;48.932;9.478;2022-10-15T14:35:28;1.03;;;1.00;;
2992;SDS011;1506;48.932;9.478;2022-10-15T14:38:00;1.30;;;1.27;;
2992;SDS011;1506;48.932;9.478;2022-10-15T14:40:55;1.10;;;1.00;;
2992;SDS011;1506;48.932;9.478;2022-10-15T14:43:33;0.87;;;0.87;;
2992;SDS011;1506;48.932;9.478;2022-10-15T14:46:06;1.10;;;1.00;;
2992;SDS011;1506;48.932;9.478;2022-10-15T14:48:41;0.97;;;0.97;;
2992;SDS011;1506;48.932;9.478;2022-10-15T14:51:17;1.03;;;1.03;;
2992;SDS011;1506;48.932;9.478;2022-10-15T14:53:49;3.90;;;3.23;;
2992;SDS011;1506;48.932;9.478;2022-10-15T14:56:19;8.57;;;7.70;;
2992;SDS011;1506;48.932;9.478;2022-10-15T14:58:56;2.67;;;2.47;;
2992;SDS011;1506;48.932;9.478;2022-10-15T15:01:24;1.87;;;1.77;;
2992;SDS011;1506;48.932;9.478;2022-10-15T15:03:53;2.30;;;1.67;;
2992;SDS011;1506;48.932;9.478;2022-10-15T15:06:22;8.57;;;4.07;;
2992;SDS011;1506;48.932;9.478;2022-10-15T15:08:49;26.20;;;20.43;;
2992;SDS011;1506;48.932;9.478;2022-10-15T15:11:17;3.47;;;3.33;;
2992;SDS011;1506;48.932;9.478;2022-10-15T15:13:48;1.60;;;1.50;;
2992;SDS011;1506;48.932;9.478;2022-10-15T15:16:17;1.43;;;1.33;;
2992;SDS011;1506;48.932;9.478;2022-10-15T15:18:44;1.93;;;1.83;;
2992;SDS011;1506;48.932;9.478;2022-10-15T15:21:20;4.00;;;3.27;;
2992;SDS011;1506;48.932;9.478;2022-10-15T15:23:48;8.27;;;7.87;;
2992;SDS011;1506;48.932;9.478;2022-10-15T15:26:16;14.13;;;13.10;;
2992;SDS011;1506;48.932;9.478;2022-10-15T15:28:44;12.70;;;11.60;;
2992;SDS011;1506;48.932;9.478;2022-10-15T15:31:15;13.50;;;12.60;;
2992;SDS011;1506;48.932;9.478;2022-10-15T15:33:43;6.10;;;5.90;;
2992;SDS011;1506;48.932;9.478;2022-10-15T15:36:14;2.40;;;2.30;;
2992;SDS011;1506;48.932;9.478;2022-10-15T15:38:48;2.07;;;1.87;;
2992;SDS011;1506;48.932;9.478;2022-10-15T15:41:16;1.20;;;1.13;;
2992;SDS011;1506;48.932;9.478;2022-10-15T15:43:48;1.53;;;1.37;;
2992;SDS011;1506;48.932;9.478;2022-10-15T15:46:15;2.50;;;1.60;;
2992;SDS011;1506;48.932;9.478;2022-10-15T15:48:42;5.50;;;1.53;;
2992;SDS011;1506;48.932;9.478;2022-10-15T15:53:46;1.80;;;1.70;;
2992;SDS011;1506;48.932;9.478;2022-10-15T15:56:13;2.53;;;2.20;;
2992;SDS011;1506;48.932;9.478;2022-10-15T15:58:40;3.10;;;1.77;;
2992;SDS011;1506;48.932;9.478;2022-10-15T16:01:08;1.90;;;1.53;;
2992;SDS011;1506;48.932;9.478;2022-10-15T16:03:35;3.90;;;2.13;;
2992;SDS011;1506;48.932;9.478;2022-10-15T16:06:05;2.33;;;2.17;;
2992;SDS011;1506;48.932;9.478;2022-10-15T16:08:34;1.60;;;1.50;;
2992;SDS011;1506;48.932;9.478;2022-10-15T16:11:02;1.50;;;1.40;;
2992;SDS011;1506;48.932;9.478;2022-10-15T16:13:31;5.27;;;1.70;;
2992;SDS011;1506;48.932;9.478;2022-10-15T16:15:58;3.97;;;1.93;;
2992;SDS011;1506;48.932;9.478;2022-10-15T16:18:25;2.20;;;2.10;;
2992;SDS011;1506;48.932;9.478;2022-10-15T16:20:52;2.47;;;1.90;;
2992;SDS011;1506;48.932;9.478;2022-10-15T16:23:20;2.47;;;2.37;;
2992;SDS011;1506;48.932;9.478;2022-10-15T16:25:47;1.60;;;1.50;;
2992;SDS011;1506;48.932;9.478;2022-10-15T16:28:14;2.07;;;1.97;;
2992;SDS011;1506;48.932;9.478;2022-10-15T16:30:41;4.20;;;3.73;;
2992;SDS011;1506;48.932;9.478;2022-10-15T16:33:08;2.83;;;2.63;;
2992;SDS011;1506;48.932;9.478;2022-10-15T16:35:35;2.57;;;2.43;;
2992;SDS011;1506;48.932;9.478;2022-10-15T16:38:02;2.37;;;2.27;;
2992;SDS011;1506;48.932;9.478;2022-10-15T16:40:29;3.10;;;2.90;;
2992;SDS011;1506;48.932;9.478;2022-10-15T16:42:56;3.77;;;3.67;;
2992;SDS011;1506;48.932;9.478;2022-10-15T16:45:23;3.97;;;3.77;;
2992;SDS011;1506;48.932;9.478;2022-10-15T16:47:52;4.50;;;4.30;;
2992;SDS011;1506;48.932;9.478;2022-10-15T16:50:19;1.83;;;1.73;;
2992;SDS011;1506;48.932;9.478;2022-10-15T16:52:46;2.40;;;2.30;;
2992;SDS011;1506;48.932;9.478;2022-10-15T16:55:13;4.00;;;3.80;;
2992;SDS011;1506;48.932;9.478;2022-10-15T16:57:42;2.40;;;2.30;;
2992;SDS011;1506;48.932;9.478;2022-10-15T17:00:09;3.40;;;3.10;;
2992;SDS011;1506;48.932;9.478;2022-10-15T17:02:37;12.37;;;4.23;;
2992;SDS011;1506;48.932;9.478;2022-10-15T17:05:04;4.60;;;4.30;;
2992;SDS011;1506;48.932;9.478;2022-10-15T17:07:32;5.80;;;4.50;;
2992;SDS011;1506;48.932;9.478;2022-10-15T17:09:59;4.33;;;3.93;;
2992;SDS011;1506;48.932;9.478;2022-10-15T17:12:26;3.80;;;3.50;;
2992;SDS011;1506;48.932;9.478;2022-10-15T17:14:54;3.87;;;3.57;;
2992;SDS011;1506;48.932;9.478;2022-10-15T17:17:20;5.83;;;2.90;;
2992;SDS011;1506;48.932;9.478;2022-10-15T17:19:47;2.90;;;2.80;;
2992;SDS011;1506;48.932;9.478;2022-10-15T17:22:14;4.03;;;2.70;;
2992;SDS011;1506;48.932;9.478;2022-10-15T17:24:41;4.10;;;3.80;;
2992;SDS011;1506;48.932;9.478;2022-10-15T17:27:08;4.77;;;3.00;;
2992;SDS011;1506;48.932;9.478;2022-10-15T17:29:35;9.70;;;5.70;;
2992;SDS011;1506;48.932;9.478;2022-10-15T17:32:03;3.77;;;3.57;;
2992;SDS011;1506;48.932;9.478;2022-10-15T17:34:30;7.83;;;5.73;;
2992;SDS011;1506;48.932;9.478;2022-10-15T17:36:57;5.43;;;4.90;;
2992;SDS011;1506;48.932;9.478;2022-10-15T17:39:24;4.23;;;3.93;;
2992;SDS011;1506;48.932;9.478;2022-10-15T17:41:51;6.20;;;3.37;;
2992;SDS011;1506;48.932;9.478;2022-10-15T17:44:18;3.03;;;2.83;;
2992;SDS011;1506;48.932;9.478;2022-10-15T17:46:45;4.00;;;3.73;;
2992;SDS011;1506;48.932;9.478;2022-10-15T17:49:23;4.13;;;2.97;;
2992;SDS011;1506;48.932;9.478;2022-10-15T17:51:50;5.20;;;3.70;;
2992;SDS011;1506;48.932;9.478;2022-10-15T17:54:17;4.23;;;3.83;;
2992;SDS011;1506;48.932;9.478;2022-10-15T17:56:45;3.73;;;3.43;;
2992;SDS011;1506;48.932;9.478;2022-10-15T17:59:13;3.00;;;2.83;;
2992;SDS011;1506;48.932;9.478;2022-10-15T18:01:41;2.30;;;2.20;;
2992;SDS011;1506;48.932;9.478;2022-10-15T18:04:29;2.60;;;2.50;;
2992;SDS011;1506;48.932;9.478;2022-10-15T18:06:56;2.70;;;2.60;;
2992;SDS011;1506;48.932;9.478;2022-10-15T18:09:24;3.10;;;2.00;;
2992;SDS011;1506;48.932;9.478;2022-10-15T18:11:59;6.17;;;2.30;;
2992;SDS011;1506;48.932;9.478;2022-10-15T18:14:28;2.50;;;2.40;;
2992;SDS011;1506;48.932;9.478;2022-10-15T18:16:56;8.10;;;5.10;;
2992;SDS011;1506;48.932;9.478;2022-10-15T18:19:23;4.50;;;3.33;;